sensor_id;sensor_type;location;lat;lon;timestamp;P1;durP1;ratioP1;P2;durP2;ratioP2
21213;SDS011;10764;50.850;2.904;2023-02-17T00:00:56;0.88;;;0.60;;
21213;SDS011;10764;50.850;2.904;2023-02-17T00:03:23;1.15;;;0.65;;
21213;SDS011;10764;50.850;2.904;2023-02-17T00:05:51;0.75;;;0.60;;
21213;SDS011;10764;50.850;2.904;2023-02-17T00:08:18;1.10;;;0.70;;
21213;SDS011;10764;50.850;2.904;2023-02-17T00:10:53;1.50;;;0.60;;
21213;SDS011;10764;50.850;2.904;2023-02-17T00:13:21;1.40;;;0.68;;
21213;SDS011;10764;50.850;2.904;2023-02-17T00:15:48;1.10;;;0.60;;
21213;SDS011;10764;50.850;2.904;2023-02-17T00:18:15;2.10;;;0.63;;
21213;SDS011;10764;50.850;2.904;2023-02-17T00:20:42;0.90;;;0.50;;
21213;SDS011;10764;50.850;2.904;2023-02-17T00:23:09;0.93;;;0.60;;
21213;SDS011;10764;50.850;2.904;2023-02-17T00:25:36;0.70;;;0.50;;
21213;SDS011;10764;50.850;2.904;2023-02-17T00:28:03;1.00;;;0.50;;
21213;SDS011;10764;50.850;2.904;2023-02-17T00:30:30;0.98;;;0.52;;
21213;SDS011;10764;50.850;2.904;2023-02-17T00:32:59;1.45;;;0.60;;
21213;SDS011;10764;50.850;2.904;2023-02-17T00:35:26;2.50;;;0.60;;
21213;SDS011;10764;50.850;2.904;2023-02-17T00:37:53;1.13;;;0.60;;
21213;SDS011;10764;50.850;2.904;2023-02-17T00:40:19;0.82;;;0.40;;
21213;SDS011;10764;50.850;2.904;2023-02-17T00:42:46;1.80;;;0.50;;
21213;SDS011;10764;50.850;2.904;2023-02-17T00:45:14;0.98;;;0.43;;
21213;SDS011;10764;50.850;2.904;2023-02-17T00:47:41;1.65;;;0.40;;
21213;SDS011;10764;50.850;2.904;2023-02-17T00:50:08;0.40;;;0.30;;
21213;SDS011;10764;50.850;2.904;2023-02-17T00:52:35;1.02;;;0.57;;
21213;SDS011;10764;50.850;2.904;2023-02-17T00:55:02;0.98;;;0.40;;
21213;SDS011;10764;50.850;2.904;2023-02-17T00:57:28;1.00;;;0.43;;
21213;SDS011;10764;50.850;2.904;2023-02-17T00:59:57;0.57;;;0.30;;
21213;SDS011;10764;50.850;2.904;2023-02-17T01:02:25;1.13;;;0.50;;
21213;SDS011;10764;50.850;2.904;2023-02-17T01:04:52;0.60;;;0.30;;
21213;SDS011;10764;50.850;2.904;2023-02-17T01:07:18;1.63;;;0.38;;
21213;SDS011;10764;50.850;2.904;2023-02-17T01:09:45;0.57;;;0.40;;
21213;SDS011;10764;50.850;2.904;2023-02-17T01:12:12;0.98;;;0.50;;
21213;SDS011;10764;50.850;2.904;2023-02-17T01:14:39;0.45;;;0.35;;
21213;SDS011;10764;50.850;2.904;2023-02-17T01:17:06;0.68;;;0.40;;
21213;SDS011;10764;50.850;2.904;2023-02-17T01:19:32;1.00;;;0.30;;
21213;SDS011;10764;50.850;2.904;2023-02-17T01:21:59;0.50;;;0.35;;
21213;SDS011;10764;50.850;2.904;2023-02-17T01:24:26;0.65;;;0.40;;
21213;SDS011;10764;50.850;2.904;2023-02-17T01:26:54;0.47;;;0.40;;
21213;SDS011;10764;50.850;2.904;2023-02-17T01:29:21;0.60;;;0.30;;
21213;SDS011;10764;50.850;2.904;2023-02-17T01:31:47;0.70;;;0.40;;
21213;SDS011;10764;50.850;2.904;2023-02-17T01:34:14;1.02;;;0.60;;
21213;SDS011;10764;50.850;2.904;2023-02-17T01:36:41;0.73;;;0.40;;
21213;SDS011;10764;50.850;2.904;2023-02-17T01:39:09;1.05;;;0.45;;
21213;SDS011;10764;50.850;2.904;2023-02-17T01:41:38;1.38;;;0.47;;
21213;SDS011;10764;50.850;2.904;2023-02-17T01:44:06;1.73;;;0.40;;
21213;SDS011;10764;50.850;2.904;2023-02-17T01:46:36;1.00;;;0.30;;
21213;SDS011;10764;50.850;2.904;2023-02-17T01:49:10;0.40;;;0.30;;
21213;SDS011;10764;50.850;2.904;2023-02-17T01:51:56;0.60;;;0.30;;
21213;SDS011;10764;50.850;2.904;2023-02-17T01:54:43;0.77;;;0.30;;
21213;SDS011;10764;50.850;2.904;2023-02-17T01:57:14;0.75;;;0.32;;
21213;SDS011;10764;50.850;2.904;2023-02-17T01:59:44;0.70;;;0.40;;
21213;SDS011;10764;50.850;2.904;2023-02-17T02:02:11;0.73;;;0.30;;
21213;SDS011;10764;50.850;2.904;2023-02-17T02:04:41;1.35;;;0.32;;
21213;SDS011;10764;50.850;2.904;2023-02-17T02:07:14;0.60;;;0.30;;
21213;SDS011;10764;50.850;2.904;2023-02-17T02:09:46;0.50;;;0.25;;
21213;SDS011;10764;50.850;2.904;2023-02-17T02:12:21;1.53;;;0.30;;
21213;SDS011;10764;50.850;2.904;2023-02-17T02:14:50;1.20;;;0.30;;
21213;SDS011;10764;50.850;2.904;2023-02-17T02:22:55;0.83;;;0.30;;
21213;SDS011;10764;50.850;2.904;2023-02-17T02:34:02;0.50;;;0.30;;
21213;SDS011;10764;50.850;2.904;2023-02-17T02:36:59;0.80;;;0.30;;
21213;SDS011;10764;50.850;2.904;2023-02-17T02:39:41;0.50;;;0.30;;
21213;SDS011;10764;50.850;2.904;2023-02-17T02:42:13;1.30;;;0.20;;
21213;SDS011;10764;50.850;2.904;2023-02-17T02:44:42;0.50;;;0.20;;
21213;SDS011;10764;50.850;2.904;2023-02-17T02:53:39;0.60;;;0.28;;
21213;SDS011;10764;50.850;2.904;2023-02-17T02:59:07;0.88;;;0.30;;
21213;SDS011;10764;50.850;2.904;2023-02-17T03:02:14;0.88;;;0.30;;
21213;SDS011;10764;50.850;2.904;2023-02-17T03:07:58;0.90;;;0.30;;
21213;SDS011;10764;50.850;2.904;2023-02-17T03:10:43;1.73;;;0.38;;
21213;SDS011;10764;50.850;2.904;2023-02-17T03:13:11;2.80;;;0.30;;
21213;SDS011;10764;50.850;2.904;2023-02-17T03:15:38;0.80;;;0.30;;
21213;SDS011;10764;50.850;2.904;2023-02-17T03:18:05;1.20;;;0.40;;
21213;SDS011;10764;50.850;2.904;2023-02-17T03:20:34;0.85;;;0.30;;
21213;SDS011;10764;50.850;2.904;2023-02-17T03:23:04;0.75;;;0.30;;
21213;SDS011;10764;50.850;2.904;2023-02-17T03:25:32;1.00;;;0.30;;
21213;SDS011;10764;50.850;2.904;2023-02-17T03:27:59;0.60;;;0.30;;
21213;SDS011;10764;50.850;2.904;2023-02-17T03:30:25;0.40;;;0.28;;
21213;SDS011;10764;50.850;2.904;2023-02-17T03:32:53;0.50;;;0.20;;
21213;SDS011;10764;50.850;2.904;2023-02-17T03:35:20;0.40;;;0.20;;
21213;SDS011;10764;50.850;2.904;2023-02-17T03:37:47;1.00;;;0.30;;
21213;SDS011;10764;50.850;2.904;2023-02-17T03:40:13;0.43;;;0.22;;
21213;SDS011;10764;50.850;2.904;2023-02-17T03:42:40;1.00;;;0.32;;
21213;SDS011;10764;50.850;2.904;2023-02-17T03:45:07;0.70;;;0.30;;
21213;SDS011;10764;50.850;2.904;2023-02-17T03:47:34;1.52;;;0.30;;
21213;SDS011;10764;50.850;2.904;2023-02-17T03:50:01;0.60;;;0.30;;
21213;SDS011;10764;50.850;2.904;2023-02-17T03:52:28;0.43;;;0.28;;
21213;SDS011;10764;50.850;2.904;2023-02-17T03:54:54;0.73;;;0.25;;
21213;SDS011;10764;50.850;2.904;2023-02-17T03:57:21;1.05;;;0.40;;
21213;SDS011;10764;50.850;2.904;2023-02-17T03:59:48;0.75;;;0.30;;
21213;SDS011;10764;50.850;2.904;2023-02-17T04:02:15;1.27;;;0.30;;
21213;SDS011;10764;50.850;2.904;2023-02-17T04:04:41;0.93;;;0.30;;
21213;SDS011;10764;50.850;2.904;2023-02-17T04:07:08;0.57;;;0.20;;
21213;SDS011;10764;50.850;2.904;2023-02-17T04:09:35;0.98;;;0.43;;
21213;SDS011;10764;50.850;2.904;2023-02-17T04:12:02;1.00;;;0.30;;
21213;SDS011;10764;50.850;2.904;2023-02-17T04:14:29;0.80;;;0.35;;
21213;SDS011;10764;50.850;2.904;2023-02-17T04:16:56;0.90;;;0.30;;
21213;SDS011;10764;50.850;2.904;2023-02-17T04:19:23;0.73;;;0.30;;
21213;SDS011;10764;50.850;2.904;2023-02-17T04:21:49;0.80;;;0.30;;
21213;SDS011;10764;50.850;2.904;2023-02-17T04:24:16;0.80;;;0.20;;
21213;SDS011;10764;50.850;2.904;2023-02-17T04:26:43;1.02;;;0.28;;
21213;SDS011;10764;50.850;2.904;2023-02-17T04:29:10;1.20;;;0.30;;
21213;SDS011;10764;50.850;2.904;2023-02-17T04:31:36;0.50;;;0.20;;
21213;SDS011;10764;50.850;2.904;2023-02-17T04:34:03;0.68;;;0.30;;
21213;SDS011;10764;50.850;2.904;2023-02-17T04:36:30;0.83;;;0.30;;
21213;SDS011;10764;50.850;2.904;2023-02-17T04:38:58;0.57;;;0.20;;
21213;SDS011;10764;50.850;2.904;2023-02-17T04:41:24;0.70;;;0.30;;
21213;SDS011;10764;50.850;2.904;2023-02-17T04:43:51;0.95;;;0.28;;
21213;SDS011;10764;50.850;2.904;2023-02-17T04:46:18;1.00;;;0.40;;
21213;SDS011;10764;50.850;2.904;2023-02-17T04:48:45;1.75;;;0.40;;
21213;SDS011;10764;50.850;2.904;2023-02-17T04:51:11;0.90;;;0.20;;
21213;SDS011;10764;50.850;2.904;2023-02-17T04:53:38;0.50;;;0.22;;
21213;SDS011;10764;50.850;2.904;2023-02-17T04:56:05;0.30;;;0.20;;
21213;SDS011;10764;50.850;2.904;2023-02-17T04:58:32;0.52;;;0.20;;
21213;SDS011;10764;50.850;2.904;2023-02-17T05:00:59;0.53;;;0.20;;
21213;SDS011;10764;50.850;2.904;2023-02-17T05:03:26;1.10;;;0.60;;
21213;SDS011;10764;50.850;2.904;2023-02-17T05:05:53;0.85;;;0.22;;
21213;SDS011;10764;50.850;2.904;2023-02-17T05:08:20;1.70;;;0.38;;
21213;SDS011;10764;50.850;2.904;2023-02-17T05:10:47;0.90;;;0.30;;
21213;SDS011;10764;50.850;2.904;2023-02-17T05:13:17;2.90;;;0.30;;
21213;SDS011;10764;50.850;2.904;2023-02-17T05:15:45;0.40;;;0.20;;
21213;SDS011;10764;50.850;2.904;2023-02-17T05:18:12;1.10;;;0.32;;
21213;SDS011;10764;50.850;2.904;2023-02-17T05:20:39;0.80;;;0.40;;
21213;SDS011;10764;50.850;2.904;2023-02-17T05:23:06;2.55;;;0.30;;
21213;SDS011;10764;50.850;2.904;2023-02-17T05:25:33;0.90;;;0.30;;
21213;SDS011;10764;50.850;2.904;2023-02-17T05:28:00;0.60;;;0.23;;
21213;SDS011;10764;50.850;2.904;2023-02-17T05:30:27;1.40;;;0.40;;
21213;SDS011;10764;50.850;2.904;2023-02-17T05:32:54;1.10;;;0.35;;
21213;SDS011;10764;50.850;2.904;2023-02-17T05:35:21;8.98;;;8.25;;
21213;SDS011;10764;50.850;2.904;2023-02-17T05:37:48;1.60;;;0.50;;
21213;SDS011;10764;50.850;2.904;2023-02-17T05:40:15;1.42;;;0.60;;
21213;SDS011;10764;50.850;2.904;2023-02-17T05:42:42;0.80;;;0.40;;
21213;SDS011;10764;50.850;2.904;2023-02-17T05:45:08;15.73;;;14.83;;
21213;SDS011;10764;50.850;2.904;2023-02-17T05:47:35;1.83;;;1.02;;
21213;SDS011;10764;50.850;2.904;2023-02-17T05:50:03;10.73;;;10.07;;
21213;SDS011;10764;50.850;2.904;2023-02-17T05:52:30;232.43;;;214.52;;
21213;SDS011;10764;50.850;2.904;2023-02-17T05:54:57;217.60;;;200.95;;
21213;SDS011;10764;50.850;2.904;2023-02-17T05:57:23;33.33;;;31.33;;
21213;SDS011;10764;50.850;2.904;2023-02-17T05:59:50;0.90;;;0.40;;
21213;SDS011;10764;50.850;2.904;2023-02-17T06:02:17;0.60;;;0.30;;
21213;SDS011;10764;50.850;2.904;2023-02-17T06:04:44;5.50;;;5.07;;
21213;SDS011;10764;50.850;2.904;2023-02-17T06:07:11;21.20;;;19.95;;
21213;SDS011;10764;50.850;2.904;2023-02-17T06:09:37;4.67;;;4.33;;
21213;SDS011;10764;50.850;2.904;2023-02-17T06:12:04;3.33;;;3.10;;
21213;SDS011;10764;50.850;2.904;2023-02-17T06:14:31;1.23;;;1.07;;
21213;SDS011;10764;50.850;2.904;2023-02-17T06:16:58;0.70;;;0.32;;
21213;SDS011;10764;50.850;2.904;2023-02-17T06:19:26;1.20;;;0.30;;
21213;SDS011;10764;50.850;2.904;2023-02-17T06:21:53;0.50;;;0.20;;
21213;SDS011;10764;50.850;2.904;2023-02-17T06:24:22;0.67;;;0.30;;
21213;SDS011;10764;50.850;2.904;2023-02-17T06:26:49;0.95;;;0.40;;
21213;SDS011;10764;50.850;2.904;2023-02-17T06:29:16;0.20;;;0.10;;
21213;SDS011;10764;50.850;2.904;2023-02-17T06:31:43;0.47;;;0.20;;
21213;SDS011;10764;50.850;2.904;2023-02-17T06:34:10;0.50;;;0.22;;
21213;SDS011;10764;50.850;2.904;2023-02-17T06:36:37;1.50;;;0.20;;
21213;SDS011;10764;50.850;2.904;2023-02-17T06:39:03;0.70;;;0.30;;
21213;SDS011;10764;50.850;2.904;2023-02-17T06:41:30;0.47;;;0.20;;
21213;SDS011;10764;50.850;2.904;2023-02-17T06:43:57;0.95;;;0.30;;
21213;SDS011;10764;50.850;2.904;2023-02-17T06:46:23;0.73;;;0.20;;
21213;SDS011;10764;50.850;2.904;2023-02-17T06:48:50;0.68;;;0.28;;
21213;SDS011;10764;50.850;2.904;2023-02-17T06:51:17;1.80;;;0.30;;
21213;SDS011;10764;50.850;2.904;2023-02-17T06:53:44;1.80;;;0.30;;
21213;SDS011;10764;50.850;2.904;2023-02-17T06:56:10;2.35;;;0.30;;
21213;SDS011;10764;50.850;2.904;2023-02-17T06:58:37;5.03;;;4.73;;
21213;SDS011;10764;50.850;2.904;2023-02-17T07:01:04;74.05;;;69.13;;
21213;SDS011;10764;50.850;2.904;2023-02-17T07:03:33;0.80;;;0.35;;
21213;SDS011;10764;50.850;2.904;2023-02-17T07:06:00;1.73;;;1.33;;
21213;SDS011;10764;50.850;2.904;2023-02-17T07:08:27;1.48;;;0.45;;
21213;SDS011;10764;50.850;2.904;2023-02-17T07:10:53;0.98;;;0.43;;
21213;SDS011;10764;50.850;2.904;2023-02-17T07:13:20;0.95;;;0.30;;
21213;SDS011;10764;50.850;2.904;2023-02-17T07:15:47;4.47;;;0.50;;
21213;SDS011;10764;50.850;2.904;2023-02-17T07:18:14;1.42;;;0.40;;
21213;SDS011;10764;50.850;2.904;2023-02-17T07:20:41;1.08;;;0.32;;
21213;SDS011;10764;50.850;2.904;2023-02-17T07:23:07;1.33;;;0.35;;
21213;SDS011;10764;50.850;2.904;2023-02-17T07:25:34;1.90;;;0.60;;
21213;SDS011;10764;50.850;2.904;2023-02-17T07:28:01;2.22;;;0.52;;
21213;SDS011;10764;50.850;2.904;2023-02-17T07:30:28;2.92;;;0.38;;
21213;SDS011;10764;50.850;2.904;2023-02-17T07:32:55;2.35;;;0.30;;
21213;SDS011;10764;50.850;2.904;2023-02-17T07:35:22;2.92;;;0.73;;
21213;SDS011;10764;50.850;2.904;2023-02-17T07:37:48;1.73;;;0.63;;
21213;SDS011;10764;50.850;2.904;2023-02-17T07:40:16;1.77;;;0.60;;
21213;SDS011;10764;50.850;2.904;2023-02-17T07:42:44;2.43;;;0.90;;
21213;SDS011;10764;50.850;2.904;2023-02-17T07:45:12;1.83;;;0.40;;
21213;SDS011;10764;50.850;2.904;2023-02-17T07:47:38;1.33;;;0.30;;
21213;SDS011;10764;50.850;2.904;2023-02-17T07:50:05;0.95;;;0.32;;
21213;SDS011;10764;50.850;2.904;2023-02-17T07:52:33;6.03;;;1.58;;
21213;SDS011;10764;50.850;2.904;2023-02-17T07:55:01;4.60;;;1.20;;
21213;SDS011;10764;50.850;2.904;2023-02-17T07:57:28;3.13;;;1.67;;
21213;SDS011;10764;50.850;2.904;2023-02-17T07:59:55;1.40;;;0.55;;
21213;SDS011;10764;50.850;2.904;2023-02-17T08:02:21;3.25;;;0.60;;
21213;SDS011;10764;50.850;2.904;2023-02-17T08:04:50;5.10;;;1.20;;
21213;SDS011;10764;50.850;2.904;2023-02-17T08:07:17;3.85;;;3.10;;
21213;SDS011;10764;50.850;2.904;2023-02-17T08:09:45;3.27;;;2.10;;
21213;SDS011;10764;50.850;2.904;2023-02-17T08:12:31;3.80;;;2.13;;
21213;SDS011;10764;50.850;2.904;2023-02-17T08:15:16;12.65;;;11.80;;
21213;SDS011;10764;50.850;2.904;2023-02-17T08:17:43;3.97;;;3.08;;
21213;SDS011;10764;50.850;2.904;2023-02-17T08:20:10;14.13;;;12.93;;
21213;SDS011;10764;50.850;2.904;2023-02-17T08:22:38;4.55;;;3.88;;
21213;SDS011;10764;50.850;2.904;2023-02-17T08:25:05;3.42;;;3.13;;
21213;SDS011;10764;50.850;2.904;2023-02-17T08:27:32;2.07;;;0.77;;
21213;SDS011;10764;50.850;2.904;2023-02-17T08:29:59;3.00;;;0.70;;
21213;SDS011;10764;50.850;2.904;2023-02-17T08:32:26;2.57;;;2.20;;
21213;SDS011;10764;50.850;2.904;2023-02-17T08:34:56;3.55;;;3.25;;
21213;SDS011;10764;50.850;2.904;2023-02-17T08:37:23;3.20;;;2.10;;
21213;SDS011;10764;50.850;2.904;2023-02-17T08:39:50;2.15;;;0.68;;
21213;SDS011;10764;50.850;2.904;2023-02-17T08:42:17;3.70;;;3.40;;
21213;SDS011;10764;50.850;2.904;2023-02-17T08:44:45;4.80;;;4.50;;
21213;SDS011;10764;50.850;2.904;2023-02-17T08:47:11;6.80;;;6.33;;
21213;SDS011;10764;50.850;2.904;2023-02-17T08:49:38;1.30;;;1.02;;
21213;SDS011;10764;50.850;2.904;2023-02-17T08:52:06;6.38;;;5.88;;
21213;SDS011;10764;50.850;2.904;2023-02-17T08:54:33;13.90;;;12.98;;
21213;SDS011;10764;50.850;2.904;2023-02-17T08:57:00;23.25;;;21.80;;
21213;SDS011;10764;50.850;2.904;2023-02-17T08:59:27;42.43;;;39.97;;
21213;SDS011;10764;50.850;2.904;2023-02-17T09:01:54;48.25;;;45.33;;
21213;SDS011;10764;50.850;2.904;2023-02-17T09:04:21;11.52;;;10.63;;
21213;SDS011;10764;50.850;2.904;2023-02-17T09:06:49;7.60;;;7.10;;
21213;SDS011;10764;50.850;2.904;2023-02-17T09:09:18;2.80;;;1.10;;
21213;SDS011;10764;50.850;2.904;2023-02-17T09:11:54;1.67;;;1.13;;
21213;SDS011;10764;50.850;2.904;2023-02-17T09:14:22;2.35;;;0.65;;
21213;SDS011;10764;50.850;2.904;2023-02-17T09:16:50;0.90;;;0.30;;
21213;SDS011;10764;50.850;2.904;2023-02-17T09:19:17;1.25;;;0.47;;
21213;SDS011;10764;50.850;2.904;2023-02-17T09:21:44;1.17;;;0.30;;
21213;SDS011;10764;50.850;2.904;2023-02-17T09:24:11;3.13;;;1.52;;
21213;SDS011;10764;50.850;2.904;2023-02-17T09:26:38;1.25;;;0.82;;
21213;SDS011;10764;50.850;2.904;2023-02-17T09:29:05;1.90;;;0.68;;
21213;SDS011;10764;50.850;2.904;2023-02-17T09:31:33;1.70;;;0.68;;
21213;SDS011;10764;50.850;2.904;2023-02-17T09:34:03;1.60;;;0.43;;
21213;SDS011;10764;50.850;2.904;2023-02-17T09:36:32;1.35;;;1.08;;
21213;SDS011;10764;50.850;2.904;2023-02-17T09:39:03;1.45;;;0.40;;
21213;SDS011;10764;50.850;2.904;2023-02-17T09:41:38;3.05;;;2.85;;
21213;SDS011;10764;50.850;2.904;2023-02-17T09:44:16;3.87;;;3.57;;
21213;SDS011;10764;50.850;2.904;2023-02-17T09:49:42;0.80;;;0.20;;
21213;SDS011;10764;50.850;2.904;2023-02-17T09:52:16;1.33;;;0.50;;
21213;SDS011;10764;50.850;2.904;2023-02-17T09:55:07;2.97;;;1.17;;
21213;SDS011;10764;50.850;2.904;2023-02-17T09:57:43;1.23;;;0.50;;
21213;SDS011;10764;50.850;2.904;2023-02-17T10:00:49;1.55;;;0.73;;
21213;SDS011;10764;50.850;2.904;2023-02-17T10:03:27;2.88;;;0.98;;
21213;SDS011;10764;50.850;2.904;2023-02-17T10:08:46;1.40;;;0.30;;
21213;SDS011;10764;50.850;2.904;2023-02-17T10:11:33;1.77;;;0.73;;
21213;SDS011;10764;50.850;2.904;2023-02-17T10:14:05;2.50;;;2.28;;
21213;SDS011;10764;50.850;2.904;2023-02-17T10:16:47;14.57;;;13.63;;
21213;SDS011;10764;50.850;2.904;2023-02-17T10:19:23;21.88;;;20.63;;
21213;SDS011;10764;50.850;2.904;2023-02-17T10:21:57;19.07;;;17.97;;
21213;SDS011;10764;50.850;2.904;2023-02-17T10:24:39;1.63;;;1.42;;
21213;SDS011;10764;50.850;2.904;2023-02-17T10:30:08;2.65;;;2.45;;
21213;SDS011;10764;50.850;2.904;2023-02-17T10:32:48;1.60;;;0.50;;
21213;SDS011;10764;50.850;2.904;2023-02-17T10:35:31;6.38;;;5.88;;
21213;SDS011;10764;50.850;2.904;2023-02-17T10:38:11;1.13;;;0.52;;
21213;SDS011;10764;50.850;2.904;2023-02-17T10:41:03;0.98;;;0.40;;
21213;SDS011;10764;50.850;2.904;2023-02-17T10:43:34;1.77;;;0.37;;
21213;SDS011;10764;50.850;2.904;2023-02-17T10:46:02;0.80;;;0.45;;
21213;SDS011;10764;50.850;2.904;2023-02-17T10:48:43;2.28;;;0.40;;
21213;SDS011;10764;50.850;2.904;2023-02-17T10:51:17;1.23;;;0.40;;
21213;SDS011;10764;50.850;2.904;2023-02-17T10:53:51;1.30;;;0.20;;
21213;SDS011;10764;50.850;2.904;2023-02-17T10:56:24;1.08;;;0.32;;
21213;SDS011;10764;50.850;2.904;2023-02-17T10:59:13;0.90;;;0.30;;
21213;SDS011;10764;50.850;2.904;2023-02-17T11:02:34;1.13;;;0.30;;
21213;SDS011;10764;50.850;2.904;2023-02-17T11:04:59;2.30;;;0.57;;
21213;SDS011;10764;50.850;2.904;2023-02-17T11:07:33;1.05;;;0.32;;
21213;SDS011;10764;50.850;2.904;2023-02-17T11:10:20;2.05;;;0.60;;
21213;SDS011;10764;50.850;2.904;2023-02-17T11:12:49;2.75;;;0.95;;
21213;SDS011;10764;50.850;2.904;2023-02-17T11:15:17;5.18;;;1.30;;
21213;SDS011;10764;50.850;2.904;2023-02-17T11:17:46;5.15;;;1.60;;
21213;SDS011;10764;50.850;2.904;2023-02-17T11:22:42;7.65;;;2.30;;
21213;SDS011;10764;50.850;2.904;2023-02-17T11:25:22;9.65;;;2.90;;
21213;SDS011;10764;50.850;2.904;2023-02-17T11:28:02;10.98;;;3.72;;
21213;SDS011;10764;50.850;2.904;2023-02-17T11:30:37;14.40;;;3.90;;
21213;SDS011;10764;50.850;2.904;2023-02-17T11:33:14;14.07;;;4.32;;
21213;SDS011;10764;50.850;2.904;2023-02-17T11:35:48;15.80;;;4.82;;
21213;SDS011;10764;50.850;2.904;2023-02-17T11:38:25;19.27;;;7.40;;
21213;SDS011;10764;50.850;2.904;2023-02-17T11:41:06;21.30;;;8.85;;
21213;SDS011;10764;50.850;2.904;2023-02-17T11:43:34;29.40;;;17.98;;
21213;SDS011;10764;50.850;2.904;2023-02-17T11:46:07;20.83;;;7.30;;
21213;SDS011;10764;50.850;2.904;2023-02-17T11:49:08;26.58;;;12.07;;
21213;SDS011;10764;50.850;2.904;2023-02-17T11:54:58;20.27;;;7.65;;
21213;SDS011;10764;50.850;2.904;2023-02-17T11:57:43;25.23;;;7.80;;
21213;SDS011;10764;50.850;2.904;2023-02-17T12:00:26;32.20;;;23.75;;
21213;SDS011;10764;50.850;2.904;2023-02-17T12:05:57;57.20;;;51.40;;
21213;SDS011;10764;50.850;2.904;2023-02-17T12:08:50;35.10;;;17.92;;
21213;SDS011;10764;50.850;2.904;2023-02-17T12:11:48;155.50;;;142.40;;
21213;SDS011;10764;50.850;2.904;2023-02-17T12:25:36;492.20;;;451.30;;
21213;SDS011;10764;50.850;2.904;2023-02-17T12:40:44;892.30;;;821.25;;
21213;SDS011;10764;50.850;2.904;2023-02-17T12:46:11;432.80;;;397.70;;
21213;SDS011;10764;50.850;2.904;2023-02-17T12:48:48;492.93;;;452.53;;
21213;SDS011;10764;50.850;2.904;2023-02-17T12:51:28;305.45;;;280.55;;
21213;SDS011;10764;50.850;2.904;2023-02-17T12:59:51;190.27;;;174.88;;
21213;SDS011;10764;50.850;2.904;2023-02-17T13:02:24;232.25;;;213.40;;
21213;SDS011;10764;50.850;2.904;2023-02-17T13:04:52;304.80;;;280.25;;
21213;SDS011;10764;50.850;2.904;2023-02-17T13:09:57;214.63;;;197.27;;
21213;SDS011;10764;50.850;2.904;2023-02-17T13:17:33;31.77;;;28.20;;
21213;SDS011;10764;50.850;2.904;2023-02-17T13:22:38;168.73;;;155.73;;
21213;SDS011;10764;50.850;2.904;2023-02-17T13:25:06;148.85;;;137.05;;
21213;SDS011;10764;50.850;2.904;2023-02-17T13:27:51;174.52;;;160.77;;
21213;SDS011;10764;50.850;2.904;2023-02-17T13:33:14;377.25;;;346.90;;
21213;SDS011;10764;50.850;2.904;2023-02-17T13:35:53;274.87;;;252.83;;
21213;SDS011;10764;50.850;2.904;2023-02-17T13:38:27;50.42;;;45.83;;
21213;SDS011;10764;50.850;2.904;2023-02-17T13:41:00;80.30;;;74.05;;
21213;SDS011;10764;50.850;2.904;2023-02-17T13:43:37;194.20;;;179.27;;
21213;SDS011;10764;50.850;2.904;2023-02-17T13:46:08;231.77;;;213.43;;
21213;SDS011;10764;50.850;2.904;2023-02-17T13:48:44;241.25;;;222.43;;
21213;SDS011;10764;50.850;2.904;2023-02-17T13:51:24;146.25;;;134.82;;
21213;SDS011;10764;50.850;2.904;2023-02-17T13:53:53;172.07;;;158.90;;
21213;SDS011;10764;50.850;2.904;2023-02-17T13:56:24;119.57;;;110.77;;
21213;SDS011;10764;50.850;2.904;2023-02-17T13:59:09;154.30;;;142.60;;
21213;SDS011;10764;50.850;2.904;2023-02-17T14:01:43;207.02;;;190.88;;
21213;SDS011;10764;50.850;2.904;2023-02-17T14:04:18;209.27;;;193.18;;
21213;SDS011;10764;50.850;2.904;2023-02-17T14:06:55;36.97;;;33.75;;
21213;SDS011;10764;50.850;2.904;2023-02-17T14:09:25;68.25;;;63.10;;
21213;SDS011;10764;50.850;2.904;2023-02-17T14:11:54;49.45;;;45.10;;
21213;SDS011;10764;50.850;2.904;2023-02-17T14:14:23;136.75;;;126.50;;
21213;SDS011;10764;50.850;2.904;2023-02-17T14:16:59;120.30;;;111.75;;
21213;SDS011;10764;50.850;2.904;2023-02-17T14:19:41;168.88;;;156.02;;
21213;SDS011;10764;50.850;2.904;2023-02-17T14:22:21;149.77;;;138.75;;
21213;SDS011;10764;50.850;2.904;2023-02-17T14:25:03;262.73;;;242.43;;
21213;SDS011;10764;50.850;2.904;2023-02-17T14:27:45;248.75;;;229.48;;
21213;SDS011;10764;50.850;2.904;2023-02-17T14:30:26;287.40;;;264.90;;
21213;SDS011;10764;50.850;2.904;2023-02-17T14:33:03;407.20;;;375.25;;
21213;SDS011;10764;50.850;2.904;2023-02-17T14:38:29;210.38;;;194.25;;
21213;SDS011;10764;50.850;2.904;2023-02-17T14:40:58;237.95;;;219.68;;
21213;SDS011;10764;50.850;2.904;2023-02-17T14:43:26;328.30;;;302.45;;
21213;SDS011;10764;50.850;2.904;2023-02-17T14:45:53;217.38;;;200.52;;
21213;SDS011;10764;50.850;2.904;2023-02-17T14:48:20;549.67;;;506.20;;
21213;SDS011;10764;50.850;2.904;2023-02-17T14:50:47;399.38;;;368.05;;
21213;SDS011;10764;50.850;2.904;2023-02-17T14:53:25;174.35;;;161.32;;
21213;SDS011;10764;50.850;2.904;2023-02-17T14:55:58;485.25;;;447.30;;
21213;SDS011;10764;50.850;2.904;2023-02-17T14:58:33;395.83;;;364.77;;
21213;SDS011;10764;50.850;2.904;2023-02-17T15:03:27;355.75;;;328.10;;
21213;SDS011;10764;50.850;2.904;2023-02-17T15:05:54;245.90;;;227.07;;
21213;SDS011;10764;50.850;2.904;2023-02-17T15:08:24;259.25;;;239.27;;
21213;SDS011;10764;50.850;2.904;2023-02-17T15:10:59;255.95;;;236.32;;
21213;SDS011;10764;50.850;2.904;2023-02-17T15:13:27;240.23;;;221.93;;
21213;SDS011;10764;50.850;2.904;2023-02-17T15:15:54;245.48;;;226.85;;
21213;SDS011;10764;50.850;2.904;2023-02-17T15:18:21;135.57;;;125.77;;
21213;SDS011;10764;50.850;2.904;2023-02-17T15:20:48;181.50;;;168.02;;
21213;SDS011;10764;50.850;2.904;2023-02-17T15:23:20;202.35;;;187.20;;
21213;SDS011;10764;50.850;2.904;2023-02-17T15:25:49;150.23;;;139.40;;
21213;SDS011;10764;50.850;2.904;2023-02-17T15:28:17;204.45;;;189.07;;
21213;SDS011;10764;50.850;2.904;2023-02-17T15:30:48;177.50;;;164.43;;
21213;SDS011;10764;50.850;2.904;2023-02-17T15:33:17;184.57;;;170.95;;
21213;SDS011;10764;50.850;2.904;2023-02-17T15:35:45;221.00;;;204.50;;
21213;SDS011;10764;50.850;2.904;2023-02-17T15:38:15;237.50;;;219.65;;
21213;SDS011;10764;50.850;2.904;2023-02-17T15:40:42;213.57;;;197.57;;
21213;SDS011;10764;50.850;2.904;2023-02-17T15:43:10;135.52;;;125.95;;
21213;SDS011;10764;50.850;2.904;2023-02-17T15:45:40;153.82;;;142.82;;
21213;SDS011;10764;50.850;2.904;2023-02-17T15:48:10;153.25;;;142.25;;
21213;SDS011;10764;50.850;2.904;2023-02-17T15:50:38;134.13;;;124.68;;
21213;SDS011;10764;50.850;2.904;2023-02-17T15:53:05;184.00;;;169.45;;
21213;SDS011;10764;50.850;2.904;2023-02-17T15:55:32;198.82;;;183.82;;
21213;SDS011;10764;50.850;2.904;2023-02-17T15:58:01;224.63;;;207.77;;
21213;SDS011;10764;50.850;2.904;2023-02-17T16:00:33;281.88;;;260.55;;
21213;SDS011;10764;50.850;2.904;2023-02-17T16:03:01;353.38;;;326.13;;
21213;SDS011;10764;50.850;2.904;2023-02-17T16:05:28;429.13;;;396.17;;
21213;SDS011;10764;50.850;2.904;2023-02-17T16:07:55;435.60;;;402.35;;
21213;SDS011;10764;50.850;2.904;2023-02-17T16:10:23;360.63;;;333.27;;
21213;SDS011;10764;50.850;2.904;2023-02-17T16:12:55;369.63;;;341.65;;
21213;SDS011;10764;50.850;2.904;2023-02-17T16:15:23;391.80;;;362.00;;
21213;SDS011;10764;50.850;2.904;2023-02-17T16:17:51;320.33;;;296.02;;
21213;SDS011;10764;50.850;2.904;2023-02-17T16:20:19;162.68;;;150.77;;
21213;SDS011;10764;50.850;2.904;2023-02-17T16:23:00;208.23;;;192.88;;
21213;SDS011;10764;50.850;2.904;2023-02-17T16:25:28;126.20;;;117.45;;
21213;SDS011;10764;50.850;2.904;2023-02-17T16:27:55;65.82;;;61.45;;